createdAt,value
2017-11-21T00:02:24.298Z,11.37
2017-11-21T00:04:52.566Z,12.43
2017-11-21T00:07:20.849Z,13.57
2017-11-21T00:09:49.187Z,13.20
2017-11-21T00:12:18.214Z,12.87
2017-11-21T00:14:46.486Z,12.43
2017-11-21T00:17:14.741Z,12.60
2017-11-21T00:19:43.808Z,11.30
2017-11-21T00:22:12.057Z,11.97
2017-11-21T00:24:40.401Z,13.80
2017-11-21T00:27:09.429Z,12.13
2017-11-21T00:29:37.676Z,12.40
2017-11-21T00:32:05.936Z,12.63
2017-11-21T00:34:34.983Z,11.70
2017-11-21T00:37:03.865Z,10.83
2017-11-21T00:39:32.145Z,11.60
2017-11-21T00:42:00.400Z,11.40
2017-11-21T00:44:28.702Z,12.63
2017-11-21T00:46:56.963Z,12.97
2017-11-21T00:49:25.251Z,13.30
2017-11-21T00:51:53.514Z,12.47
2017-11-21T00:54:21.775Z,13.60
2017-11-21T00:56:50.046Z,10.90
2017-11-21T00:59:18.315Z,12.60
2017-11-21T01:01:47.355Z,13.63
2017-11-21T01:04:15.624Z,11.30
2017-11-21T01:06:43.872Z,12.20
2017-11-21T01:09:12.147Z,13.20
2017-11-21T01:11:40.396Z,13.23
2017-11-21T01:14:08.740Z,12.20
2017-11-21T01:16:37.014Z,13.47
2017-11-21T01:19:05.941Z,14.57
2017-11-21T01:21:34.309Z,13.90
2017-11-21T01:24:02.599Z,13.00
2017-11-21T01:26:30.871Z,15.90
2017-11-21T01:28:59.109Z,13.33
2017-11-21T01:31:27.379Z,10.60
2017-11-21T01:33:55.638Z,13.57
2017-11-21T01:36:24.064Z,13.73
2017-11-21T01:38:52.332Z,13.07
2017-11-21T01:41:20.617Z,11.73
2017-11-21T01:43:49.067Z,15.27
2017-11-21T01:46:17.308Z,13.07
2017-11-21T01:48:46.342Z,14.03
2017-11-21T01:51:14.655Z,14.67
2017-11-21T01:53:42.916Z,14.73
2017-11-21T01:56:11.304Z,17.63
2017-11-21T01:58:39.639Z,16.87
2017-11-21T02:01:07.898Z,16.63
2017-11-21T02:03:36.955Z,19.00
2017-11-21T02:06:05.235Z,19.27
2017-11-21T02:08:33.523Z,19.10
2017-11-21T02:11:01.786Z,18.17
2017-11-21T02:13:30.062Z,19.60
2017-11-21T02:15:58.356Z,19.73
2017-11-21T02:18:26.606Z,18.37
2017-11-21T02:20:54.886Z,19.40
2017-11-21T02:23:23.177Z,19.70
2017-11-21T02:25:51.445Z,20.53
2017-11-21T02:28:19.714Z,23.93
2017-11-21T02:30:47.985Z,18.27
2017-11-21T02:33:16.282Z,17.97
2017-11-21T02:35:44.555Z,16.37
2017-11-21T02:38:12.821Z,18.07
2017-11-21T02:40:43.514Z,16.97
2017-11-21T02:43:11.776Z,18.20
2017-11-21T02:45:40.817Z,16.60
2017-11-21T02:48:09.082Z,17.77
2017-11-21T02:50:37.369Z,17.77
2017-11-21T02:53:05.645Z,17.33
2017-11-21T02:55:33.924Z,18.30
2017-11-21T02:58:02.200Z,17.17
2017-11-21T03:00:30.477Z,19.70
2017-11-21T03:02:58.746Z,15.67
2017-11-21T03:05:27.021Z,17.10
2017-11-21T03:07:55.282Z,17.83
2017-11-21T03:10:23.578Z,15.70
2017-11-21T03:12:51.935Z,16.13
2017-11-21T03:15:20.235Z,16.13
2017-11-21T03:17:48.495Z,13.77
2017-11-21T03:20:28.594Z,17.23
2017-11-21T03:23:08.748Z,14.63
2017-11-21T03:25:49.065Z,18.20
2017-11-21T03:28:17.329Z,25.20
2017-11-21T03:30:45.590Z,27.50
2017-11-21T03:33:14.680Z,32.03
2017-11-21T03:35:43.721Z,33.43
2017-11-21T03:38:11.981Z,43.50
2017-11-21T03:40:40.268Z,52.70
2017-11-21T03:43:08.545Z,52.70
2017-11-21T03:45:36.811Z,60.97
2017-11-21T03:48:05.293Z,61.97
2017-11-21T03:50:33.672Z,67.90
2017-11-21T03:53:01.958Z,81.03
2017-11-21T03:55:30.224Z,65.83
2017-11-21T03:57:58.480Z,72.60
2017-11-21T04:00:27.534Z,70.27
2017-11-21T04:02:55.808Z,70.93
2017-11-21T04:05:24.093Z,64.67
2017-11-21T04:07:52.361Z,67.10
2017-11-21T04:10:21.465Z,57.67
2017-11-21T04:12:49.902Z,48.73
2017-11-21T04:15:18.172Z,49.03
2017-11-21T04:17:47.213Z,43.23
2017-11-21T04:20:15.517Z,44.37
2017-11-21T04:22:43.785Z,39.13
2017-11-21T04:25:12.076Z,40.27
2017-11-21T04:27:40.332Z,36.40
2017-11-21T04:30:08.609Z,31.40
2017-11-21T04:32:36.888Z,33.43
2017-11-21T04:35:05.180Z,30.70
2017-11-21T04:37:33.447Z,32.70
2017-11-21T04:40:01.826Z,28.40
2017-11-21T04:42:30.196Z,30.47
2017-11-21T04:44:58.462Z,34.97
2017-11-21T04:47:26.745Z,29.00
2017-11-21T04:49:55.030Z,32.57
2017-11-21T04:52:23.297Z,35.97
2017-11-21T04:54:51.571Z,37.20
2017-11-21T04:57:19.849Z,36.03
2017-11-21T04:59:48.118Z,30.20
2017-11-21T05:02:16.504Z,28.77
2017-11-21T05:04:44.851Z,31.63
2017-11-21T05:07:13.372Z,30.17
2017-11-21T05:09:41.639Z,27.67
2017-11-21T05:12:09.916Z,29.87
2017-11-21T05:14:38.186Z,26.67
2017-11-21T05:17:06.508Z,25.87
2017-11-21T05:19:35.512Z,26.93
2017-11-21T05:22:04.621Z,27.67
2017-11-21T05:24:32.902Z,22.87
2017-11-21T05:27:01.174Z,26.27
2017-11-21T05:29:29.448Z,26.37
2017-11-21T05:31:57.722Z,23.30
2017-11-21T05:34:26.757Z,27.63
2017-11-21T05:36:55.028Z,26.60
2017-11-21T05:39:23.296Z,22.27
2017-11-21T05:41:51.583Z,26.57
2017-11-21T05:44:19.849Z,23.80
2017-11-21T05:46:48.124Z,23.13
2017-11-21T05:49:16.452Z,20.13
2017-11-21T05:51:44.813Z,27.23
2017-11-21T05:54:13.116Z,25.50
2017-11-21T05:56:41.386Z,21.70
2017-11-21T05:59:09.680Z,24.70
2017-11-21T06:01:38.720Z,23.40
2017-11-21T06:04:07.791Z,23.57
2017-11-21T06:06:36.826Z,24.80
2017-11-21T06:09:05.084Z,26.90
2017-11-21T06:11:33.380Z,24.00
2017-11-21T06:14:01.808Z,25.00
2017-11-21T06:16:30.861Z,25.90
2017-11-21T06:18:59.297Z,23.90
2017-11-21T06:21:27.561Z,26.60
2017-11-21T06:23:56.636Z,20.57
2017-11-21T06:26:25.014Z,21.90
2017-11-21T06:28:53.300Z,24.03
2017-11-21T06:31:22.353Z,28.83
2017-11-21T06:33:50.668Z,23.70
2017-11-21T06:36:19.035Z,24.73
2017-11-21T06:38:47.284Z,23.00
2017-11-21T06:41:16.616Z,24.80
2017-11-21T06:43:44.879Z,24.93
2017-11-21T06:46:13.152Z,23.17
2017-11-21T06:48:41.432Z,25.20
2017-11-21T06:51:09.708Z,24.20
2017-11-21T06:53:38.085Z,28.37
2017-11-21T06:56:06.376Z,25.97
2017-11-21T06:58:34.654Z,25.93
2017-11-21T07:01:02.922Z,30.00
2017-11-21T07:03:31.176Z,27.07
2017-11-21T07:05:59.624Z,26.23
2017-11-21T07:08:28.654Z,25.37
2017-11-21T07:10:56.908Z,24.40
2017-11-21T07:13:25.198Z,24.57
2017-11-21T07:15:53.465Z,21.00
2017-11-21T07:18:21.877Z,23.73
2017-11-21T07:20:50.143Z,22.20
2017-11-21T07:23:18.482Z,22.70
2017-11-21T07:25:47.734Z,18.43
2017-11-21T07:28:16.013Z,19.03
2017-11-21T07:30:44.288Z,18.23
2017-11-21T07:33:12.566Z,19.20
2017-11-21T07:35:40.866Z,19.87
2017-11-21T07:38:09.412Z,13.77
2017-11-21T07:40:37.739Z,17.27
2017-11-21T07:43:06.783Z,14.93
2017-11-21T07:45:35.050Z,11.97
2017-11-21T07:48:03.450Z,12.83
2017-11-21T07:50:31.713Z,16.97
2017-11-21T07:52:59.965Z,13.77
2017-11-21T07:55:29.803Z,11.10
2017-11-21T07:57:58.069Z,10.90
2017-11-21T08:00:26.351Z,12.23
2017-11-21T08:02:54.695Z,11.23
2017-11-21T08:05:23.707Z,13.77
2017-11-21T08:07:51.998Z,13.03
2017-11-21T08:10:20.260Z,11.27
2017-11-21T08:12:48.536Z,10.60
2017-11-21T08:15:16.796Z,11.70
2017-11-21T08:17:45.819Z,10.73
2017-11-21T08:20:14.085Z,10.53
2017-11-21T08:22:44.501Z,13.07
2017-11-21T08:25:12.817Z,10.70
2017-11-21T08:27:41.078Z,9.30
2017-11-21T08:30:09.338Z,9.10
2017-11-21T08:32:39.425Z,9.17
2017-11-21T08:35:07.678Z,10.10
2017-11-21T08:37:36.333Z,10.60
2017-11-21T08:40:04.630Z,9.73
2017-11-21T08:42:32.947Z,9.63
2017-11-21T08:45:01.301Z,9.57
2017-11-21T08:47:29.561Z,11.80
2017-11-21T08:49:57.855Z,9.07
2017-11-21T08:52:26.141Z,7.90
2017-11-21T08:54:54.424Z,11.07
2017-11-21T08:57:22.700Z,11.20
2017-11-21T08:59:51.013Z,13.27
2017-11-21T09:02:19.332Z,11.43
2017-11-21T09:04:47.640Z,11.50
2017-11-21T09:07:15.908Z,11.57
2017-11-21T09:09:44.177Z,10.67
2017-11-21T09:12:12.431Z,9.87
2017-11-21T09:14:40.692Z,12.83
2017-11-21T09:17:08.968Z,11.20
2017-11-21T09:19:37.269Z,11.87
2017-11-21T09:22:05.544Z,14.97
2017-11-21T09:24:33.810Z,14.17
2017-11-21T09:27:02.113Z,14.67
2017-11-21T09:29:30.373Z,14.03
2017-11-21T09:31:58.700Z,14.87
2017-11-21T09:34:27.037Z,16.90
2017-11-21T09:36:55.309Z,17.20
2017-11-21T09:39:23.577Z,21.70
2017-11-21T09:41:51.862Z,21.27
2017-11-21T09:44:20.149Z,23.93
2017-11-21T09:46:48.584Z,22.93
2017-11-21T09:49:16.921Z,27.70
2017-11-21T09:51:46.001Z,28.40
2017-11-21T09:54:14.273Z,29.17
2017-11-21T09:56:42.566Z,30.30
2017-11-21T09:59:10.936Z,34.73
2017-11-21T10:01:39.225Z,31.43
2017-11-21T10:04:08.276Z,30.57
2017-11-21T10:06:36.528Z,31.70
2017-11-21T10:09:04.813Z,31.10
2017-11-21T10:11:33.073Z,29.90
2017-11-21T10:14:02.125Z,37.10
2017-11-21T10:16:30.414Z,31.73
2017-11-21T10:19:00.200Z,26.20
2017-11-21T10:21:28.670Z,30.80
2017-11-21T10:23:56.933Z,35.43
2017-11-21T10:26:25.435Z,32.77
2017-11-21T10:28:53.706Z,31.23
2017-11-21T10:31:21.986Z,27.20
2017-11-21T10:33:50.260Z,29.30
2017-11-21T10:36:18.538Z,25.53
2017-11-21T10:38:46.833Z,27.00
2017-11-21T10:41:15.174Z,25.57
2017-11-21T10:43:43.534Z,28.27
2017-11-21T10:46:12.590Z,24.00
2017-11-21T10:48:41.391Z,28.83
2017-11-21T10:51:09.759Z,27.67
2017-11-21T10:53:38.028Z,27.70
2017-11-21T10:56:06.302Z,26.80
2017-11-21T10:58:34.582Z,29.03
2017-11-21T11:01:02.919Z,30.73
2017-11-21T11:03:31.952Z,28.23
2017-11-21T11:06:00.226Z,28.80
2017-11-21T11:08:28.488Z,28.83
2017-11-21T11:10:56.783Z,28.30
2017-11-21T11:13:25.056Z,30.33
2017-11-21T11:15:53.457Z,27.43
2017-11-21T11:18:22.748Z,29.20
2017-11-21T11:20:51.114Z,28.17
2017-11-21T11:23:20.186Z,25.47
2017-11-21T11:25:48.461Z,31.57
2017-11-21T11:28:16.737Z,29.63
2017-11-21T11:30:45.022Z,27.03
2017-11-21T11:33:13.301Z,29.87
2017-11-21T11:35:41.725Z,28.63
2017-11-21T11:38:10.007Z,31.80
2017-11-21T11:40:38.302Z,30.70
2017-11-21T11:43:08.145Z,26.80
2017-11-21T11:45:36.462Z,26.67
2017-11-21T11:48:04.734Z,25.90
2017-11-21T11:50:33.018Z,24.47
2017-11-21T11:53:01.297Z,23.03
2017-11-21T11:55:29.572Z,23.43
2017-11-21T11:57:57.898Z,23.03
2017-11-21T12:00:26.926Z,23.87
2017-11-21T12:02:55.195Z,22.80
2017-11-21T12:05:23.459Z,22.73
2017-11-21T12:07:51.725Z,22.83
2017-11-21T12:10:20.053Z,23.30
2017-11-21T12:12:48.432Z,23.53
2017-11-21T12:15:16.696Z,23.47
2017-11-21T12:17:44.987Z,26.97
2017-11-21T12:20:13.252Z,25.13
2017-11-21T12:22:43.528Z,26.57
2017-11-21T12:25:11.811Z,26.43
2017-11-21T12:27:40.121Z,26.50
2017-11-21T12:30:08.388Z,26.57
2017-11-21T12:32:36.662Z,23.50
2017-11-21T12:35:04.975Z,23.93
2017-11-21T12:37:33.734Z,22.73
2017-11-21T12:40:02.009Z,26.30
2017-11-21T12:42:30.304Z,24.10
2017-11-21T12:44:58.590Z,22.63
2017-11-21T12:47:26.977Z,23.50
2017-11-21T12:49:55.233Z,19.77
2017-11-21T12:52:23.528Z,16.30
2017-11-21T12:54:52.619Z,20.73
2017-11-21T12:57:20.892Z,20.40
2017-11-21T12:59:49.276Z,21.90
2017-11-21T13:02:17.540Z,20.27
2017-11-21T13:04:45.842Z,17.43
2017-11-21T13:07:14.118Z,17.53
2017-11-21T13:09:42.394Z,15.13
2017-11-21T13:12:11.604Z,15.80
2017-11-21T13:14:39.879Z,15.37
2017-11-21T13:17:08.933Z,18.87
2017-11-21T13:19:37.287Z,16.03
2017-11-21T13:22:05.579Z,12.80
2017-11-21T13:24:33.852Z,15.30
2017-11-21T13:27:02.129Z,16.23
2017-11-21T13:29:30.434Z,15.83
2017-11-21T13:31:58.755Z,16.80
2017-11-21T13:34:27.801Z,15.50
2017-11-21T13:36:56.089Z,16.80
2017-11-21T13:39:24.375Z,15.80
2017-11-21T13:41:52.652Z,16.07
2017-11-21T13:44:21.029Z,16.83
2017-11-21T13:46:49.478Z,16.27
2017-11-21T13:49:17.937Z,13.97
2017-11-21T13:51:47.306Z,15.87
2017-11-21T13:54:16.973Z,16.50
2017-11-21T13:56:45.262Z,18.90
2017-11-21T13:59:13.559Z,15.67
2017-11-21T14:01:41.830Z,15.27
2017-11-21T14:04:10.102Z,14.67
2017-11-21T14:06:38.419Z,12.60
2017-11-21T14:09:07.450Z,16.63
2017-11-21T14:11:35.722Z,15.07
2017-11-21T14:14:04.005Z,14.10
2017-11-21T14:16:32.282Z,14.00
2017-11-21T14:19:00.601Z,13.23
2017-11-21T14:21:28.893Z,14.27
2017-11-21T14:23:57.971Z,15.60
2017-11-21T14:26:26.244Z,12.67
2017-11-21T14:28:54.521Z,15.87
2017-11-21T14:31:22.819Z,14.17
2017-11-21T14:33:51.854Z,13.70
2017-11-21T14:36:20.166Z,12.23
2017-11-21T14:38:48.429Z,14.83
2017-11-21T14:41:17.333Z,16.27
2017-11-21T14:43:45.625Z,17.83
2017-11-21T14:46:13.900Z,13.30
2017-11-21T14:48:42.198Z,12.20
2017-11-21T14:51:11.254Z,16.63
2017-11-21T14:53:40.360Z,19.53
2017-11-21T14:56:08.631Z,14.73
2017-11-21T14:58:36.929Z,15.70
2017-11-21T15:01:05.998Z,19.20
2017-11-21T15:03:34.260Z,17.67
2017-11-21T15:06:02.550Z,18.37
2017-11-21T15:08:30.833Z,19.97
2017-11-21T15:10:59.122Z,16.07
2017-11-21T15:13:27.409Z,16.57
2017-11-21T15:15:58.034Z,13.70
2017-11-21T15:18:26.421Z,14.57
2017-11-21T15:20:54.693Z,16.00
2017-11-21T15:23:23.066Z,13.83
2017-11-21T15:25:51.335Z,15.23
2017-11-21T15:28:19.626Z,15.53
2017-11-21T15:30:47.902Z,12.63
2017-11-21T15:33:16.182Z,13.23
2017-11-21T15:35:44.447Z,12.70
2017-11-21T15:38:13.505Z,13.10
2017-11-21T15:40:41.820Z,11.03
2017-11-21T15:43:10.242Z,11.37
2017-11-21T15:45:39.262Z,15.13
2017-11-21T15:48:07.543Z,10.70
2017-11-21T15:50:35.826Z,13.67
2017-11-21T15:53:04.153Z,12.30
2017-11-21T15:55:33.257Z,12.10
2017-11-21T15:58:01.534Z,11.33
2017-11-21T16:00:30.575Z,13.07
2017-11-21T16:02:59.637Z,10.63
2017-11-21T16:05:28.693Z,10.83
2017-11-21T16:07:57.026Z,9.93
2017-11-21T16:10:26.061Z,12.70
2017-11-21T16:12:54.371Z,12.23
2017-11-21T16:15:23.254Z,11.37
2017-11-21T16:17:52.485Z,11.27
2017-11-21T16:20:20.835Z,11.87
2017-11-21T16:22:49.860Z,10.33
2017-11-21T16:25:18.139Z,11.20
2017-11-21T16:27:49.575Z,11.60
2017-11-21T16:30:17.882Z,9.73
2017-11-21T16:32:46.261Z,8.83
2017-11-21T16:35:14.542Z,8.77
2017-11-21T16:37:43.070Z,8.53
2017-11-21T16:40:11.438Z,8.50
2017-11-21T16:42:39.723Z,9.57
2017-11-21T16:45:07.997Z,10.33
2017-11-21T16:47:37.208Z,8.47
2017-11-21T16:50:06.281Z,9.77
2017-11-21T16:52:34.591Z,9.60
2017-11-21T16:55:02.860Z,10.40
2017-11-21T16:57:31.910Z,8.73
2017-11-21T17:00:00.171Z,9.27
2017-11-21T17:02:28.444Z,12.30
2017-11-21T17:04:56.757Z,10.37
2017-11-21T17:07:25.024Z,10.03
2017-11-21T17:09:53.312Z,8.97
2017-11-21T17:12:21.581Z,7.70
2017-11-21T17:14:49.911Z,8.93
2017-11-21T17:17:18.926Z,7.57
2017-11-21T17:19:47.434Z,7.43
2017-11-21T17:22:15.736Z,7.37
2017-11-21T17:24:43.975Z,8.03
2017-11-21T17:27:12.275Z,7.00
2017-11-21T17:29:40.543Z,7.40
2017-11-21T17:32:08.814Z,6.80
2017-11-21T17:34:37.102Z,8.37
2017-11-21T17:37:05.353Z,6.93
2017-11-21T17:39:33.660Z,7.93
2017-11-21T17:42:02.670Z,10.90
2017-11-21T17:44:31.697Z,10.43
2017-11-21T17:47:00.030Z,8.43
2017-11-21T17:49:28.317Z,7.97
2017-11-21T17:51:57.367Z,6.83
2017-11-21T17:54:25.639Z,6.03
2017-11-21T17:56:53.941Z,6.23
2017-11-21T17:59:22.234Z,6.47
2017-11-21T18:01:51.186Z,6.47
2017-11-21T18:04:19.588Z,6.37
2017-11-21T18:06:47.909Z,5.50
2017-11-21T18:09:16.209Z,8.33
2017-11-21T18:11:44.468Z,6.93
2017-11-21T18:14:12.743Z,7.60
2017-11-21T18:16:41.428Z,7.37
2017-11-21T18:19:10.453Z,8.07
2017-11-21T18:21:38.742Z,7.90
2017-11-21T18:24:07.001Z,10.10
2017-11-21T18:26:35.285Z,10.13
2017-11-21T18:29:03.562Z,10.23
2017-11-21T18:31:31.845Z,11.97
2017-11-21T18:34:00.153Z,11.03
2017-11-21T18:36:28.433Z,11.23
2017-11-21T18:38:56.696Z,11.60
2017-11-21T18:41:26.024Z,11.70
2017-11-21T18:43:54.323Z,12.07
2017-11-21T18:58:07.720Z,4.47
2017-11-21T19:00:36.219Z,6.37
2017-11-21T19:03:05.655Z,4.47
2017-11-21T19:05:34.354Z,4.63
2017-11-21T19:08:02.701Z,8.00
2017-11-21T19:10:31.968Z,3.73
2017-11-21T19:16:07.621Z,3.70
2017-11-21T19:18:35.961Z,2.53
2017-11-21T19:21:04.372Z,3.03
2017-11-21T19:23:32.784Z,5.03
2017-11-21T19:26:01.119Z,2.83
2017-11-21T19:28:30.458Z,4.68
2017-11-21T19:34:55.464Z,4.28
2017-11-21T19:37:23.794Z,6.20
2017-11-21T19:39:52.999Z,4.95
2017-11-21T19:42:22.128Z,4.72
2017-11-21T19:44:50.590Z,3.97
2017-11-21T19:47:19.050Z,3.30
2017-11-21T19:51:31.916Z,6.27
2017-11-21T19:54:00.280Z,7.47
2017-11-21T19:56:28.718Z,9.17
2017-11-21T19:58:57.891Z,10.83
2017-11-21T20:01:26.299Z,12.27
2017-11-21T20:03:54.790Z,14.67
2017-11-21T20:06:23.208Z,15.73
2017-11-21T20:08:51.571Z,17.17
2017-11-21T20:11:19.932Z,24.50
2017-11-21T20:13:49.116Z,24.07
2017-11-21T20:16:17.470Z,23.40
2017-11-21T20:18:45.840Z,24.03
2017-11-21T20:21:14.189Z,25.87
2017-11-21T20:23:42.547Z,21.87
2017-11-21T20:26:11.700Z,27.20
2017-11-21T20:28:40.055Z,25.70
2017-11-21T20:31:09.745Z,26.87
2017-11-21T20:33:38.160Z,28.77
2017-11-21T20:36:06.520Z,27.50
2017-11-21T20:38:34.862Z,29.37
2017-11-21T20:41:03.993Z,28.93
2017-11-21T20:43:32.381Z,32.07
2017-11-21T20:46:00.837Z,33.70
2017-11-21T20:48:29.984Z,35.80
2017-11-21T20:50:58.389Z,37.17
2017-11-21T20:53:26.852Z,34.67
2017-11-21T20:55:55.235Z,37.27
2017-11-21T20:58:23.931Z,40.53
2017-11-21T21:00:52.520Z,40.00
2017-11-21T21:03:21.727Z,42.63
2017-11-21T21:05:50.129Z,46.20
2017-11-21T21:08:18.528Z,46.07
2017-11-21T21:10:46.946Z,39.97
2017-11-21T21:13:17.023Z,41.20
2017-11-21T21:15:45.420Z,40.13
2017-11-21T21:18:14.116Z,37.60
2017-11-21T21:20:42.503Z,37.80
2017-11-21T21:23:11.079Z,38.47
2017-11-21T21:25:40.471Z,38.10
2017-11-21T21:28:08.852Z,37.10
2017-11-21T21:30:37.319Z,38.10
2017-11-21T21:33:05.714Z,40.57
2017-11-21T21:35:34.085Z,32.33
2017-11-21T21:38:02.450Z,33.47
2017-11-21T21:40:30.825Z,30.37
2017-11-21T21:42:59.173Z,31.07
2017-11-21T21:45:28.297Z,35.43
2017-11-21T21:47:56.766Z,34.83
2017-11-21T21:50:25.878Z,32.20
2017-11-21T21:52:54.259Z,28.60
2017-11-21T21:55:23.566Z,27.83
2017-11-21T21:57:51.917Z,30.43
2017-11-21T22:00:21.058Z,26.33
2017-11-21T22:02:49.417Z,28.50
2017-11-21T22:05:17.793Z,27.70
2017-11-21T22:07:46.148Z,30.23
2017-11-21T22:10:15.283Z,30.37
2017-11-21T22:12:43.645Z,30.17
2017-11-21T22:15:11.986Z,29.93
2017-11-21T22:17:40.361Z,28.90
2017-11-21T22:20:08.730Z,26.07
2017-11-21T22:22:37.195Z,29.87
2017-11-21T22:25:06.485Z,29.23
2017-11-21T22:27:34.841Z,29.20
2017-11-21T22:30:03.204Z,31.07
2017-11-21T22:32:32.352Z,27.17
2017-11-21T22:35:00.707Z,30.90
2017-11-21T22:37:29.087Z,30.73
2017-11-21T22:39:57.445Z,32.90
2017-11-21T22:42:25.866Z,31.73
2017-11-21T22:44:54.219Z,26.83
2017-11-21T22:47:22.596Z,29.73
2017-11-21T22:49:50.949Z,29.90
2017-11-21T22:52:20.062Z,34.03
2017-11-21T22:54:48.446Z,30.67
2017-11-21T22:57:16.793Z,29.27
2017-11-21T22:59:45.149Z,32.73
2017-11-21T23:02:13.513Z,28.90
2017-11-21T23:04:41.871Z,26.70
2017-11-21T23:07:10.229Z,32.63
2017-11-21T23:09:39.441Z,34.07
2017-11-21T23:12:07.870Z,32.57
2017-11-21T23:14:36.237Z,32.73
2017-11-21T23:17:04.576Z,32.63
2017-11-21T23:19:32.972Z,31.87
2017-11-21T23:22:01.346Z,31.60
2017-11-21T23:24:29.706Z,37.70
2017-11-21T23:26:58.058Z,32.90
2017-11-21T23:29:26.429Z,28.77
2017-11-21T23:31:54.828Z,35.40
2017-11-21T23:34:23.172Z,28.40
2017-11-21T23:36:51.544Z,30.30
2017-11-21T23:39:19.912Z,30.60
2017-11-21T23:41:48.258Z,31.20
2017-11-21T23:44:17.108Z,32.60
2017-11-21T23:46:45.462Z,30.20
2017-11-21T23:49:13.805Z,34.10
2017-11-21T23:51:43.031Z,28.73
2017-11-21T23:54:11.372Z,29.50
2017-11-21T23:56:40.509Z,28.70
2017-11-21T23:59:08.863Z,27.77
